Search for airport 
image banner adimage banner ad
image banner ad

EVAP - Jelgava Amo Plant

Located in , Latvia

ICAO - EVAP, IATA -

Data provided by Airmate  

General information

Coordinates: N56°39'56" E23°46'45"
Elevation is 7 feet MSL.
 
Rated:
View ratings: [VIEW]


View others Airports in Jelgava (city)

Operational data

Open for public use
Current time UTC:
Current local time:
Weather at : EVRA - Riga ( 31 km )
METAR: EVRA 211750Z 31009KT 260V350 9999 SCT023 BKN027 BKN041 14/10 Q1012 NOSIG
TAF: TAF EVRA 211402Z 2115/2215 31010KT 9999 BKN030 TEMPO 2115/2121 31015G27KT BECMG 2201/2203 01007KT TEMPO 2203/2210 3000 -RA BR BKN005 OVC010
View NOTAMs / SUP AIP / TFR affecting this airport [VIEW]
Communications frequencies: [VIEW]

Runways:

Airport contact information

Address: Latvia

Satellite view of EVAP